Thruxton — D5PI2 — position and weather

sailwx.info

Track history (hours):
 
Tides and Currents Weather Stations Pressure Air Temp Water Temp Dewpoint Dewpoint Depression Visibility Wind Speed Wind Dir Waves Ship Positions

Thruxton

Last reported at 2018-Aug-14 06:08 UTC. Time now 2018-Aug-14 07:01 UTC.
Position S 37°47' E 149°55'.

Length 199 m; draft 7.9 m.

Type: Cargo ship. MMSI: 636018347.

Date/timePositionNaut miles runAvg speedWind from/ knotsBaromVisibWave heightAir tempDewpointWater temp
2018-Aug-14 06:08S 37°47' E 149°55'616.6
2018-Aug-14 05:48S 37°51' E 149°49'516.5
2018-Aug-14 05:30S 37°54' E 149°45'816.0
2018-Aug-14 05:00S 37°59' E 149°37'915.8
2018-Aug-14 04:27S 38°05' E 149°29'1715.6
2018-Aug-14 03:22S 38°16' E 149°13'615.7
2018-Aug-14 03:00S 38°20' E 149°08'916.2
2018-Aug-14 02:28S 38°25' E 148°59'1116.3
2018-Aug-14 01:46S 38°32' E 148°47'  
2018-Aug-08 12:25S 31°57' E 115°38'510.6
2018-Aug-08 11:57S 32°01' E 115°42'3 6.5
2018-Aug-08 11:30S 32°03' E 115°43'2 1.4
2018-Aug-08 10:22S 32°03' E 115°45'0 0.0
2018-Aug-08 08:25S 32°03' E 115°45'0 0.0
2018-Aug-08 07:55S 32°03' E 115°45'0 0.0
2018-Aug-08 07:19S 32°03' E 115°45'0 0.0
2018-Aug-08 06:58S 32°03' E 115°45'0 0.0
2018-Aug-08 06:16S 32°03' E 115°45'0 0.0
2018-Aug-08 05:52S 32°03' E 115°45'0 0.0
2018-Aug-08 05:19S 32°03' E 115°45'0 0.0
2018-Aug-08 04:58S 32°03' E 115°45'0 0.0
2018-Aug-08 04:28S 32°03' E 115°45'0 0.0
2018-Aug-08 03:58S 32°03' E 115°45'0 0.0
2018-Aug-08 03:25S 32°03' E 115°45'0 0.0
2018-Aug-08 02:49S 32°03' E 115°45'0 0.0
2018-Aug-08 02:28S 32°03' E 115°45'0 0.0
2018-Aug-08 01:58S 32°03' E 115°45'0 0.0
2018-Aug-08 01:22S 32°03' E 115°45'1 2.1
2018-Aug-08 01:00S 32°03' E 115°44'3 6.0
2018-Aug-08 00:30S 32°02' E 115°41'3 5.6
2018-Aug-07 23:58S 31°59' E 115°42'3 6.8
2018-Aug-07 23:30S 31°57' E 115°39'5 6.9
2018-Aug-07 22:46S 31°55' E 115°33'  
Track history (hours):
 
Tides and Currents Weather Stations Pressure Air Temp Water Temp Dewpoint Dewpoint Depression Visibility Wind Speed Wind Dir Waves Ship Positions

Thruxton

Last reported at 2018-Aug-14 06:08 UTC. Time now 2018-Aug-14 07:01 UTC.
Position S 37°47' E 149°55'.

Length 199 m; draft 7.9 m.

Type: Cargo ship. MMSI: 636018347.

Date/timePositionNaut miles runAvg speedWind from/ knotsBaromVisibWave heightAir tempDewpointWater temp
2018-Aug-14 06:08S 37°47' E 149°55'616.6
2018-Aug-14 05:48S 37°51' E 149°49'516.5
2018-Aug-14 05:30S 37°54' E 149°45'816.0
2018-Aug-14 05:00S 37°59' E 149°37'915.8
2018-Aug-14 04:27S 38°05' E 149°29'1715.6
2018-Aug-14 03:22S 38°16' E 149°13'615.7
2018-Aug-14 03:00S 38°20' E 149°08'916.2
2018-Aug-14 02:28S 38°25' E 148°59'1116.3
2018-Aug-14 01:46S 38°32' E 148°47'  
2018-Aug-08 12:25S 31°57' E 115°38'510.6
2018-Aug-08 11:57S 32°01' E 115°42'3 6.5
2018-Aug-08 11:30S 32°03' E 115°43'2 1.4
2018-Aug-08 10:22S 32°03' E 115°45'0 0.0
2018-Aug-08 08:25S 32°03' E 115°45'0 0.0
2018-Aug-08 07:55S 32°03' E 115°45'0 0.0
2018-Aug-08 07:19S 32°03' E 115°45'0 0.0
2018-Aug-08 06:58S 32°03' E 115°45'0 0.0
2018-Aug-08 06:16S 32°03' E 115°45'0 0.0
2018-Aug-08 05:52S 32°03' E 115°45'0 0.0
2018-Aug-08 05:19S 32°03' E 115°45'0 0.0
2018-Aug-08 04:58S 32°03' E 115°45'0 0.0
2018-Aug-08 04:28S 32°03' E 115°45'0 0.0
2018-Aug-08 03:58S 32°03' E 115°45'0 0.0
2018-Aug-08 03:25S 32°03' E 115°45'0 0.0
2018-Aug-08 02:49S 32°03' E 115°45'0 0.0
2018-Aug-08 02:28S 32°03' E 115°45'0 0.0
2018-Aug-08 01:58S 32°03' E 115°45'0 0.0
2018-Aug-08 01:22S 32°03' E 115°45'1 2.1
2018-Aug-08 01:00S 32°03' E 115°44'3 6.0
2018-Aug-08 00:30S 32°02' E 115°41'3 5.6
2018-Aug-07 23:58S 31°59' E 115°42'3 6.8
2018-Aug-07 23:30S 31°57' E 115°39'5 6.9
2018-Aug-07 22:46S 31°55' E 115°33'  

Dump ship's entire track history